Time;durP1;ratioP1;P1;durP2;ratioP2;P2;SDS_P1;SDS_P2;PMS_P1;PMS_P2;Temp;Humidity;BMP_temperature;BMP_pressure;BME280_temperature;BME280_humidity;BME280_pressure;Samples;Min_cycle;Max_cycle;Signal;HPM_P1;HPM_P2
2022/06/20 00:01:00;;;;;;;13.10;9.67;;;26.40;92.00;;;;;;5025810;28;20540;-70
2022/06/20 00:03:38;;;;;;;13.37;9.47;;;26.40;92.30;;;;;;5024767;28;20290;-70
2022/06/20 00:06:04;;;;;;;10.87;8.87;;;26.40;92.70;;;;;;5026083;28;20409;-71
2022/06/20 00:08:30;;;;;;;14.00;9.80;;;26.20;93.40;;;;;;5025791;28;20914;-70
2022/06/20 00:10:55;;;;;;;12.13;9.13;;;26.20;93.90;;;;;;5025862;28;20516;-69
2022/06/20 00:13:28;;;;;;;12.53;9.47;;;26.20;94.60;;;;;;5025878;28;20264;-71
2022/06/20 00:15:56;;;;;;;14.37;9.13;;;26.10;95.10;;;;;;5025615;28;20190;-71
2022/06/20 00:18:22;;;;;;;12.30;8.70;;;26.00;96.10;;;;;;5025590;28;20414;-70
2022/06/20 00:20:48;;;;;;;14.07;9.30;;;26.00;96.30;;;;;;5025777;28;20900;-71
2022/06/20 00:23:14;;;;;;;11.10;8.50;;;26.10;96.60;;;;;;5025905;28;21032;-71
2022/06/20 00:25:41;;;;;;;11.00;9.40;;;26.00;97.00;;;;;;5025482;28;20179;-71
2022/06/20 00:28:07;;;;;;;18.60;9.60;;;25.90;97.60;;;;;;5025584;28;20471;-71
2022/06/20 00:30:34;;;;;;;12.07;9.83;;;25.60;98.40;;;;;;5025613;28;20406;-71
2022/06/20 00:33:00;;;;;;;13.17;9.07;;;25.60;99.10;;;;;;5023442;28;20477;-70
2022/06/20 00:35:25;;;;;;;13.93;9.13;;;25.60;99.40;;;;;;5025620;28;20409;-70
2022/06/20 00:37:55;;;;;;;10.00;8.87;;;25.50;99.90;;;;;;5025349;28;20170;-71
2022/06/20 00:40:30;;;;;;;12.80;9.57;;;25.60;99.90;;;;;;5025181;28;20586;-71
2022/06/20 00:42:57;;;;;;;15.10;9.10;;;25.80;99.90;;;;;;5024080;28;20444;-70
2022/06/20 00:45:25;;;;;;;13.10;10.10;;;25.80;99.90;;;;;;5024870;28;20429;-70
2022/06/20 00:47:55;;;;;;;12.53;8.90;;;25.70;99.90;;;;;;5024777;28;20425;-70
2022/06/20 00:50:26;;;;;;;11.33;8.40;;;25.80;99.90;;;;;;5025157;28;20992;-70
2022/06/20 00:52:51;;;;;;;11.60;9.10;;;25.90;99.90;;;;;;5025177;28;20543;-70
2022/06/20 00:55:52;;;;;;;9.73;8.17;;;26.00;99.90;;;;;;5025096;28;20914;-71
2022/06/20 00:58:42;;;;;;;11.23;9.63;;;26.10;99.90;;;;;;5024399;28;20198;-71
2022/06/20 01:01:13;;;;;;;12.70;9.17;;;26.20;99.90;;;;;;5023349;28;20475;-70
2022/06/20 01:03:45;;;;;;;13.47;8.50;;;25.90;99.90;;;;;;5024573;28;20434;-69
2022/06/20 01:06:21;;;;;;;14.83;9.27;;;25.90;99.90;;;;;;5025174;28;20828;-71
2022/06/20 01:08:51;;;;;;;21.90;11.60;;;25.90;99.90;;;;;;5024977;28;20414;-70
2022/06/20 01:11:24;;;;;;;13.53;10.50;;;25.80;99.90;;;;;;5023422;28;20513;-71
2022/06/20 01:13:51;;;;;;;16.23;12.43;;;25.90;99.90;;;;;;5024858;28;20465;-71
2022/06/20 01:16:29;;;;;;;17.33;11.90;;;25.80;99.90;;;;;;5024779;28;20414;-71
2022/06/20 01:18:58;;;;;;;18.60;12.80;;;25.40;99.90;;;;;;5024624;28;20619;-72
2022/06/20 01:21:35;;;;;;;19.10;11.77;;;25.20;99.90;;;;;;5024562;28;20496;-71
2022/06/20 01:24:37;;;;;;;21.63;14.07;;;;;;;;;;5024636;28;20434;-71
2022/06/20 01:27:08;;;;;;;15.40;13.40;;;;;;;;;;4963657;28;21768;-69
2022/06/20 01:29:35;;;;;;;17.60;12.43;;;;;;;;;;5014676;28;20883;-69
2022/06/20 01:32:02;;;;;;;17.40;13.80;;;;;;;;;;5025218;28;20504;-69
2022/06/20 01:34:27;;;;;;;15.93;12.87;;;24.00;99.90;;;;;;5024034;28;20461;-68
2022/06/20 01:39:43;;;;;;;16.53;13.37;;;23.70;99.90;;;;;;5024426;28;20177;-70
2022/06/20 01:42:21;;;;;;;17.57;11.97;;;23.50;99.90;;;;;;5024741;28;20512;-70
2022/06/20 01:44:48;;;;;;;22.70;12.57;;;23.60;99.90;;;;;;5024281;28;20409;-70
2022/06/20 01:47:14;;;;;;;12.30;9.43;;;23.40;99.90;;;;;;5024243;28;20410;-70
2022/06/20 01:49:43;;;;;;;14.93;10.73;;;23.30;99.90;;;;;;5023902;28;20436;-70
2022/06/20 01:52:23;;;;;;;17.73;12.37;;;23.20;99.90;;;;;;5024391;28;20668;-70
2022/06/20 01:54:54;;;;;;;14.70;11.37;;;23.10;99.90;;;;;;5023662;28;20454;-70
2022/06/20 01:57:21;;;;;;;17.30;12.50;;;23.00;99.90;;;;;;5023919;28;20409;-71
2022/06/20 02:00:12;;;;;;;16.90;11.40;;;22.90;99.90;;;;;;5024104;28;20476;-69
2022/06/20 02:02:42;;;;;;;20.47;11.40;;;22.80;99.90;;;;;;5023739;28;20430;-69
2022/06/20 02:05:12;;;;;;;16.30;11.50;;;22.70;99.90;;;;;;5023758;28;20927;-69
2022/06/20 02:07:39;;;;;;;15.40;12.00;;;22.50;99.90;;;;;;5023414;28;20410;-71
2022/06/20 02:10:09;;;;;;;15.60;12.20;;;22.60;99.90;;;;;;5024166;28;20914;-70
2022/06/20 02:12:38;;;;;;;12.43;10.50;;;22.50;99.90;;;;;;5023351;28;20500;-69
2022/06/20 02:15:04;;;;;;;12.77;10.80;;;22.60;99.90;;;;;;5023934;28;20505;-70
2022/06/20 02:17:34;;;;;;;16.30;11.93;;;22.70;99.90;;;;;;5023863;28;20414;-69
2022/06/20 02:20:05;;;;;;;12.63;11.43;;;22.70;99.90;;;;;;5023549;28;20500;-70
2022/06/20 02:22:33;;;;;;;15.27;11.67;;;22.70;99.90;;;;;;5023896;28;20434;-70
2022/06/20 02:25:05;;;;;;;13.43;10.87;;;22.70;99.90;;;;;;5023883;28;20418;-70
2022/06/20 02:27:37;;;;;;;17.90;10.90;;;22.60;99.90;;;;;;5023822;28;20418;-71
2022/06/20 02:30:04;;;;;;;15.33;10.83;;;22.50;99.90;;;;;;5023636;28;20420;-70
2022/06/20 02:32:36;;;;;;;13.77;11.50;;;22.50;99.90;;;;;;5023182;28;20483;-70
2022/06/20 02:35:09;;;;;;;14.53;11.57;;;22.60;99.90;;;;;;5023854;28;20883;-71
2022/06/20 02:37:35;;;;;;;12.33;9.97;;;22.60;99.90;;;;;;5023394;28;20406;-71
2022/06/20 02:40:05;;;;;;;16.90;10.30;;;22.70;99.90;;;;;;5023113;28;21597;-70
2022/06/20 02:42:39;;;;;;;13.13;9.60;;;22.80;99.90;;;;;;5023581;28;20503;-70
2022/06/20 02:45:09;;;;;;;16.03;11.20;;;22.70;99.90;;;;;;5023549;28;20500;-69
2022/06/20 02:47:43;;;;;;;12.07;9.33;;;22.50;99.90;;;;;;5023487;28;20409;-70
2022/06/20 02:50:13;;;;;;;16.17;9.53;;;22.60;99.90;;;;;;5023916;28;20442;-70
2022/06/20 02:52:56;;;;;;;18.33;11.93;;;22.60;99.90;;;;;;5024089;28;20422;-70
2022/06/20 02:55:23;;;;;;;14.50;11.70;;;22.60;99.90;;;;;;5023215;28;20414;-70
2022/06/20 02:57:52;;;;;;;24.77;13.10;;;22.50;99.90;;;;;;5023792;28;20421;-70
2022/06/20 03:00:22;;;;;;;12.67;11.10;;;22.50;99.90;;;;;;5023415;28;20471;-70
2022/06/20 03:03:09;;;;;;;19.70;12.33;;;22.60;99.90;;;;;;5023360;28;20942;-68
2022/06/20 03:05:35;;;;;;;16.17;10.90;;;22.50;99.90;;;;;;5023515;28;20451;-69
2022/06/20 03:08:01;;;;;;;20.87;12.93;;;22.60;99.90;;;;;;5025130;28;20490;-70
2022/06/20 03:10:41;;;;;;;15.50;12.50;;;22.80;99.90;;;;;;5027870;28;20402;-69
2022/06/20 03:13:08;;;;;;;16.37;12.40;;;22.80;99.90;;;;;;5025824;28;20265;-70
2022/06/20 03:15:36;;;;;;;17.10;11.10;;;22.70;99.90;;;;;;5026678;28;20414;-70
2022/06/20 03:18:04;;;;;;;18.13;12.00;;;22.60;99.90;;;;;;5026570;28;20918;-69
2022/06/20 03:20:30;;;;;;;15.63;11.47;;;22.50;99.90;;;;;;5026708;28;20425;-69
2022/06/20 03:23:07;;;;;;;20.87;12.07;;;22.30;99.90;;;;;;5026922;28;20434;-71
2022/06/20 03:25:33;;;;;;;19.67;12.00;;;22.40;99.90;;;;;;5026539;28;20401;-71
2022/06/20 03:27:59;;;;;;;16.60;11.70;;;22.40;99.90;;;;;;5026520;28;20422;-69
2022/06/20 03:30:32;;;;;;;13.63;11.17;;;22.30;99.90;;;;;;5026424;28;20437;-70
2022/06/20 03:33:00;;;;;;;12.40;9.70;;;22.20;99.90;;;;;;5026099;28;20473;-69
2022/06/20 03:35:30;;;;;;;15.50;10.77;;;22.20;99.90;;;;;;5024961;28;20429;-69
2022/06/20 03:37:57;;;;;;;13.77;10.97;;;22.30;99.90;;;;;;5026774;28;20410;-69
2022/06/20 03:40:23;;;;;;;15.90;10.03;;;22.30;99.90;;;;;;5026356;28;20417;-69
2022/06/20 03:42:49;;;;;;;17.33;11.90;;;22.20;99.90;;;;;;5026353;28;20464;-69
2022/06/20 03:45:16;;;;;;;24.00;14.33;;;22.30;99.90;;;;;;5026367;28;20854;-68
2022/06/20 03:47:48;;;;;;;16.87;12.13;;;22.60;99.90;;;;;;5026406;28;20187;-70
2022/06/20 03:50:38;;;;;;;16.33;11.30;;;22.60;99.90;;;;;;5026046;28;20485;-69
2022/06/20 03:53:19;;;;;;;17.40;11.83;;;22.70;99.90;;;;;;5026053;28;20458;-70
2022/06/20 03:56:11;;;;;;;19.33;13.30;;;22.80;99.90;;;;;;5025404;28;20980;-69
2022/06/20 03:58:51;;;;;;;20.23;13.50;;;22.80;99.90;;;;;;5026541;28;20417;-70
2022/06/20 04:01:23;;;;;;;13.67;12.17;;;22.80;99.90;;;;;;5026181;28;20397;-70
2022/06/20 04:04:04;;;;;;;14.63;11.97;;;23.00;99.90;;;;;;5024722;28;20503;-68
2022/06/20 04:06:51;;;;;;;16.67;13.80;;;22.60;99.90;;;;;;5025470;28;20504;-70
2022/06/20 04:12:37;;;;;;;15.07;13.30;;;22.70;99.90;;;;;;5025973;28;20424;-69
2022/06/20 04:15:08;;;;;;;12.43;10.80;;;22.90;99.90;;;;;;5025867;28;20816;-68
2022/06/20 04:20:51;;;;;;;18.60;11.73;;;23.00;99.90;;;;;;5025048;28;20421;-70
2022/06/20 04:23:31;;;;;;;16.07;14.37;;;22.80;99.90;;;;;;5026179;28;20441;-70
2022/06/20 04:26:20;;;;;;;17.13;12.80;;;22.80;99.90;;;;;;5024658;28;20453;-70
2022/06/20 04:29:04;;;;;;;13.10;11.33;;;22.50;99.90;;;;;;5025834;28;20491;-70
2022/06/20 04:32:01;;;;;;;16.10;11.13;;;22.60;99.90;;;;;;5023918;28;20501;-69
2022/06/20 04:34:56;;;;;;;16.97;14.03;;;22.70;99.90;;;;;;5023611;28;20473;-69
2022/06/20 04:37:38;;;;;;;16.00;13.70;;;22.60;99.90;;;;;;5016098;28;20418;-69
2022/06/20 04:40:20;;;;;;;18.53;11.50;;;22.40;99.90;;;;;;5025480;28;20837;-70
2022/06/20 04:43:14;;;;;;;14.70;11.40;;;22.20;99.90;;;;;;5024925;28;20449;-69
2022/06/20 04:46:01;;;;;;;14.50;11.27;;;22.20;99.90;;;;;;5024927;28;20497;-69
2022/06/20 04:48:28;;;;;;;13.27;11.93;;;22.20;99.90;;;;;;5025280;28;20454;-69
2022/06/20 04:51:00;;;;;;;16.90;12.27;;;22.30;99.90;;;;;;5024816;28;20456;-70
2022/06/20 04:53:33;;;;;;;18.20;12.27;;;22.40;99.90;;;;;;5024764;28;20875;-70
2022/06/20 04:56:02;;;;;;;12.60;10.70;;;22.40;99.90;;;;;;5024724;28;20408;-70
2022/06/20 04:58:39;;;;;;;18.93;11.57;;;22.40;99.90;;;;;;5024761;28;20406;-69
2022/06/20 05:01:07;;;;;;;12.30;10.50;;;22.50;99.90;;;;;;5024913;28;20414;-70
2022/06/20 05:03:40;;;;;;;16.13;12.67;;;22.60;99.90;;;;;;5024407;28;20443;-70
2022/06/20 05:06:11;;;;;;;15.23;11.60;;;22.30;99.90;;;;;;5024227;28;20437;-70
2022/06/20 05:08:46;;;;;;;11.67;10.33;;;22.30;99.90;;;;;;5024343;28;20430;-70
2022/06/20 05:11:40;;;;;;;14.00;10.83;;;22.40;99.90;;;;;;5024267;28;20448;-70
2022/06/20 05:14:24;;;;;;;14.00;9.77;;;22.60;99.90;;;;;;5024632;28;20477;-70
2022/06/20 05:16:52;;;;;;;14.23;11.40;;;22.80;99.90;;;;;;5024179;28;20885;-70
2022/06/20 05:19:24;;;;;;;10.23;9.20;;;22.80;99.90;;;;;;5024125;28;20493;-70
2022/06/20 05:21:53;;;;;;;12.13;10.90;;;22.90;99.90;;;;;;5024132;28;20406;-70
2022/06/20 05:24:23;;;;;;;11.77;10.43;;;22.80;99.90;;;;;;5022768;28;20466;-70
2022/06/20 05:26:51;;;;;;;12.60;11.33;;;22.80;99.90;;;;;;5022683;28;20480;-71
2022/06/20 05:29:35;;;;;;;14.80;12.33;;;22.90;99.90;;;;;;5023844;28;20422;-70
2022/06/20 05:32:05;;;;;;;13.03;11.80;;;22.80;99.90;;;;;;5023707;28;20478;-70
2022/06/20 05:34:35;;;;;;;12.00;10.00;;;22.40;99.90;;;;;;5021467;28;20540;-70
2022/06/20 05:37:13;;;;;;;15.47;11.40;;;22.00;99.90;;;;;;5023634;28;20402;-70
2022/06/20 05:39:54;;;;;;;17.07;12.13;;;22.10;99.90;;;;;;5023698;28;20475;-70
2022/06/20 05:42:20;;;;;;;12.53;10.70;;;22.20;99.90;;;;;;5023836;28;20781;-70
2022/06/20 05:44:47;;;;;;;11.53;10.33;;;22.30;99.90;;;;;;5023516;28;20417;-70
2022/06/20 05:47:35;;;;;;;14.33;10.63;;;22.30;99.90;;;;;;5023861;28;20468;-72
2022/06/20 05:50:28;;;;;;;11.93;10.57;;;22.40;99.90;;;;;;5023925;28;20410;-70
2022/06/20 05:52:55;;;;;;;10.53;9.47;;;22.20;99.90;;;;;;5023270;28;20468;-70
2022/06/20 05:55:25;;;;;;;12.43;11.20;;;22.10;99.90;;;;;;5023574;28;20464;-71
2022/06/20 05:57:52;;;;;;;11.70;10.30;;;22.30;99.90;;;;;;5023587;28;20406;-70
2022/06/20 06:00:40;;;;;;;11.13;9.90;;;22.40;99.90;;;;;;5023664;28;20500;-70
2022/06/20 06:03:15;;;;;;;15.30;10.47;;;22.50;99.90;;;;;;5023724;28;20487;-70
2022/06/20 06:05:45;;;;;;;13.30;9.40;;;22.40;99.90;;;;;;5023208;28;20497;-71
2022/06/20 06:08:39;;;;;;;13.43;11.00;;;22.40;99.90;;;;;;5023276;28;20433;-71
2022/06/20 06:11:20;;;;;;;11.10;10.00;;;22.70;99.90;;;;;;5023582;28;20428;-69
2022/06/20 06:14:02;;;;;;;14.33;10.57;;;23.00;99.90;;;;;;5023654;28;20468;-70
2022/06/20 06:16:46;;;;;;;15.73;10.60;;;23.10;99.90;;;;;;5023464;28;20425;-71
2022/06/20 06:19:48;;;;;;;12.23;9.40;;;23.00;99.90;;;;;;5023773;28;20459;-70
2022/06/20 06:22:24;;;;;;;9.97;9.07;;;22.90;99.90;;;;;;5023259;28;20437;-69
2022/06/20 06:24:58;;;;;;;12.93;10.23;;;22.80;99.90;;;;;;5023791;28;20416;-70
2022/06/20 06:27:31;;;;;;;12.40;10.23;;;22.90;99.90;;;;;;5023975;28;20414;-70
2022/06/20 06:30:13;;;;;;;13.60;8.97;;;23.20;99.90;;;;;;5024088;28;20406;-70
2022/06/20 06:32:42;;;;;;;11.70;8.90;;;23.40;99.90;;;;;;5023500;28;20552;-69
2022/06/20 06:35:35;;;;;;;18.73;9.70;;;23.40;99.90;;;;;;5023307;28;20418;-69
2022/06/20 06:38:04;;;;;;;10.83;9.43;;;23.30;99.90;;;;;;5023266;28;20937;-68
2022/06/20 06:40:46;;;;;;;9.63;8.57;;;23.10;99.90;;;;;;5023797;28;20972;-70
2022/06/20 06:43:32;;;;;;;11.70;8.93;;;23.10;99.90;;;;;;5026944;28;20495;-69
2022/06/20 06:46:00;;;;;;;12.20;10.90;;;23.40;99.90;;;;;;5028119;28;20398;-70
2022/06/20 06:48:32;;;;;;;11.83;9.97;;;23.70;99.90;;;;;;5027634;28;20406;-70
2022/06/20 06:51:03;;;;;;;11.37;10.13;;;23.90;99.90;;;;;;5026831;28;20455;-70
2022/06/20 06:53:44;;;;;;;15.93;10.00;;;24.00;99.90;;;;;;5027296;28;20499;-70
2022/06/20 06:56:28;;;;;;;10.70;9.30;;;24.30;99.90;;;;;;5026181;28;21176;-70
2022/06/20 06:59:01;;;;;;;10.43;9.20;;;24.40;99.90;;;;;;5026856;28;20496;-71
2022/06/20 07:01:33;;;;;;;12.87;9.90;;;24.60;99.90;;;;;;5027222;28;20436;-69
2022/06/20 07:04:11;;;;;;;11.70;10.50;;;24.60;99.90;;;;;;5027022;28;20487;-70
2022/06/20 07:06:47;;;;;;;11.80;9.80;;;24.60;99.90;;;;;;5026339;28;21510;-68
2022/06/20 07:09:32;;;;;;;10.93;9.30;;;24.60;99.90;;;;;;5026995;28;20497;-69
2022/06/20 07:12:05;;;;;;;14.93;12.00;;;24.80;99.90;;;;;;5026479;28;21133;-69
2022/06/20 07:14:39;;;;;;;17.03;12.73;;;24.90;99.90;;;;;;5027089;28;20545;-70
2022/06/20 07:17:14;;;;;;;14.03;12.60;;;24.80;99.90;;;;;;5026782;28;20879;-71
2022/06/20 07:19:47;;;;;;;18.60;12.43;;;24.80;99.90;;;;;;5026518;28;20851;-71
2022/06/20 07:22:14;;;;;;;14.30;11.77;;;24.90;99.90;;;;;;5026408;28;20436;-71
2022/06/20 07:24:43;;;;;;;16.50;12.00;;;25.00;99.90;;;;;;5026733;28;20412;-71
2022/06/20 07:27:18;;;;;;;11.23;10.13;;;25.10;99.90;;;;;;5026531;28;20536;-69
2022/06/20 07:30:01;;;;;;;12.43;10.70;;;25.20;99.90;;;;;;5026646;28;20425;-70
2022/06/20 07:32:43;;;;;;;10.87;8.37;;;25.30;99.90;;;;;;5026322;28;20453;-69
2022/06/20 07:35:14;;;;;;;14.50;10.47;;;25.40;99.90;;;;;;5026322;28;20421;-69
2022/06/20 07:37:56;;;;;;;12.80;8.13;;;25.30;99.90;;;;;;5026529;28;20724;-69
2022/06/20 07:40:36;;;;;;;11.13;7.93;;;25.40;99.90;;;;;;5026352;28;20452;-69
2022/06/20 07:43:10;;;;;;;9.23;8.03;;;25.10;99.90;;;;;;5026298;28;20978;-70
2022/06/20 07:45:42;;;;;;;10.53;7.50;;;25.40;99.90;;;;;;5026503;28;20413;-70
2022/06/20 07:48:15;;;;;;;11.80;8.13;;;25.30;99.90;;;;;;5026530;28;20398;-70
2022/06/20 07:50:50;;;;;;;10.73;9.00;;;25.30;99.90;;;;;;5025886;28;20845;-70
2022/06/20 07:53:21;;;;;;;12.60;8.97;;;25.50;99.90;;;;;;5024786;28;20556;-69
2022/06/20 07:56:01;;;;;;;9.77;8.73;;;25.90;99.90;;;;;;5026074;28;20418;-70
2022/06/20 07:58:31;;;;;;;10.83;8.60;;;26.10;99.90;;;;;;5026077;28;20406;-70
2022/06/20 08:01:00;;;;;;;13.67;9.10;;;26.30;99.90;;;;;;5026026;28;20398;-70
2022/06/20 08:03:30;;;;;;;10.13;8.80;;;26.40;99.90;;;;;;5026091;28;20438;-70
2022/06/20 08:06:00;;;;;;;9.73;8.43;;;26.50;99.90;;;;;;5026184;28;20397;-70
2022/06/20 08:08:36;;;;;;;9.50;7.47;;;26.50;99.90;;;;;;5025993;28;20406;-69
2022/06/20 08:11:50;;;;;;;12.20;7.60;;;26.90;99.90;;;;;;5025875;28;20421;-69
2022/06/20 08:14:32;;;;;;;12.53;8.07;;;26.50;99.90;;;;;;5016304;28;20469;-69
2022/06/20 08:17:04;;;;;;;9.53;7.67;;;26.00;99.90;;;;;;5025544;28;20775;-70
2022/06/20 08:19:31;;;;;;;13.13;8.30;;;25.80;99.90;;;;;;5025729;28;20398;-70
2022/06/20 08:22:11;;;;;;;9.63;8.00;;;25.80;99.90;;;;;;5025138;28;20471;-70
2022/06/20 08:24:44;;;;;;;9.37;7.53;;;26.00;99.90;;;;;;5025880;28;20409;-70
2022/06/20 08:27:13;;;;;;;13.17;7.10;;;26.10;99.90;;;;;;5025455;28;20410;-69
2022/06/20 08:29:47;;;;;;;11.13;7.00;;;26.20;99.90;;;;;;5025341;28;20414;-70
2022/06/20 08:32:29;;;;;;;9.30;6.80;;;26.30;99.90;;;;;;5025521;28;20429;-71
2022/06/20 08:35:23;;;;;;;11.37;8.50;;;26.10;99.90;;;;;;5023612;28;20753;-71
2022/06/20 08:37:57;;;;;;;15.30;7.63;;;25.80;99.90;;;;;;5024694;28;20432;-70
2022/06/20 08:40:53;;;;;;;8.87;7.27;;;25.70;99.90;;;;;;5025459;28;20819;-70
2022/06/20 08:43:34;;;;;;;11.40;7.80;;;25.70;99.90;;;;;;5025176;28;20969;-70
2022/06/20 08:46:25;;;;;;;10.77;7.17;;;25.80;99.90;;;;;;5025117;28;20508;-70
2022/06/20 08:49:12;;;;;;;12.33;8.10;;;25.80;99.90;;;;;;5024775;28;20414;-70
2022/06/20 08:52:07;;;;;;;17.57;8.03;;;26.10;99.90;;;;;;5024254;28;20405;-70
2022/06/20 08:55:02;;;;;;;8.20;7.40;;;26.20;99.90;;;;;;5024763;28;20962;-70
2022/06/20 08:58:09;;;;;;;10.73;8.83;;;26.40;99.90;;;;;;5023438;28;20414;-69
2022/06/20 09:00:45;;;;;;;8.90;7.10;;;26.70;99.90;;;;;;5017639;28;20757;-70
2022/06/20 09:03:48;;;;;;;9.43;7.27;;;26.70;99.90;;;;;;5024870;28;20473;-71
2022/06/20 09:06:29;;;;;;;8.10;7.30;;;26.80;99.90;;;;;;5024329;28;20413;-71
2022/06/20 09:09:13;;;;;;;10.83;7.00;;;27.20;99.90;;;;;;5023318;28;20797;-70
2022/06/20 09:12:02;;;;;;;8.90;6.93;;;27.30;99.90;;;;;;5024127;28;20420;-70
2022/06/20 09:15:09;;;;;;;8.70;7.27;;;27.00;99.90;;;;;;5024096;28;20457;-70
2022/06/20 09:18:00;;;;;;;9.43;7.03;;;26.90;99.90;;;;;;5023757;28;20422;-71
2022/06/20 09:20:29;;;;;;;13.10;8.07;;;27.30;99.90;;;;;;5024573;28;20433;-70
2022/06/20 09:23:01;;;;;;;12.80;7.90;;;27.40;99.90;;;;;;5023585;28;20470;-69
2022/06/20 09:26:05;;;;;;;11.70;7.27;;;27.80;99.90;;;;;;5024531;28;20429;-71
2022/06/20 09:28:52;;;;;;;11.70;7.53;;;27.60;99.90;;;;;;5024681;28;20437;-71
2022/06/20 09:31:46;;;;;;;9.27;7.60;;;27.70;99.90;;;;;;5024457;28;20406;-71
2022/06/20 09:34:42;;;;;;;12.10;8.27;;;27.90;99.90;;;;;;5023997;28;20465;-71
2022/06/20 09:37:44;;;;;;;11.70;8.07;;;28.10;99.90;;;;;;5023516;28;20413;-70
2022/06/20 09:40:26;;;;;;;9.40;7.07;;;28.10;99.90;;;;;;5024205;28;20402;-69
2022/06/20 09:43:23;;;;;;;9.43;6.90;;;28.30;99.90;;;;;;5024327;28;20426;-71
2022/06/20 09:46:03;;;;;;;6.93;6.30;;;28.50;99.90;;;;;;5024100;28;20806;-70
2022/06/20 09:48:41;;;;;;;10.80;7.27;;;28.60;99.80;;;;;;5023227;28;20887;-71
2022/06/20 09:51:32;;;;;;;8.73;7.43;;;29.00;99.90;;;;;;5023611;28;20410;-69
2022/06/20 09:54:44;;;;;;;7.27;6.60;;;29.20;99.20;;;;;;5023711;28;20453;-72
2022/06/20 09:57:19;;;;;;;11.20;7.03;;;29.20;98.90;;;;;;4951992;28;20560;-70
2022/06/20 10:00:07;;;;;;;9.00;6.57;;;28.60;99.20;;;;;;5024122;28;20428;-71
2022/06/20 10:02:51;;;;;;;12.40;7.67;;;28.20;99.80;;;;;;5024061;28;20426;-71
2022/06/20 10:05:28;;;;;;;9.83;6.63;;;28.10;99.90;;;;;;5023826;28;20405;-71
2022/06/20 10:08:01;;;;;;;8.73;7.03;;;28.00;99.90;;;;;;5023181;28;20417;-71
2022/06/20 10:10:43;;;;;;;15.33;8.10;;;28.20;99.90;;;;;;5023505;28;20401;-71
2022/06/20 10:13:39;;;;;;;8.47;7.10;;;28.10;99.90;;;;;;5022634;28;20511;-71
2022/06/20 10:16:30;;;;;;;12.37;6.60;;;28.40;99.60;;;;;;5023061;28;20402;-70
2022/06/20 10:19:11;;;;;;;7.83;6.30;;;28.60;99.40;;;;;;5023862;28;20420;-71
2022/06/20 10:21:43;;;;;;;9.27;6.77;;;28.60;99.50;;;;;;5022891;28;20421;-70
2022/06/20 10:24:29;;;;;;;9.10;6.33;;;28.80;98.80;;;;;;5023584;28;20453;-71
2022/06/20 10:27:23;;;;;;;11.70;7.30;;;28.70;99.00;;;;;;5023419;28;20418;-69
2022/06/20 10:30:01;;;;;;;12.70;6.70;;;28.40;99.40;;;;;;5023151;28;20517;-70
2022/06/20 10:32:54;;;;;;;7.07;6.40;;;28.50;99.60;;;;;;5023014;28;20454;-70
2022/06/20 10:35:35;;;;;;;6.37;5.50;;;28.70;98.90;;;;;;5023498;28;20504;-70
2022/06/20 10:38:12;;;;;;;10.27;7.37;;;29.20;98.80;;;;;;5023450;28;20402;-70
2022/06/20 10:41:05;;;;;;;8.70;5.90;;;29.40;98.70;;;;;;5023187;28;20386;-71
2022/06/20 10:46:45;;;;;;;9.00;6.67;;;28.90;98.00;;;;;;5021602;28;20462;-69
2022/06/20 10:49:22;;;;;;;9.37;6.70;;;28.70;98.50;;;;;;5022383;28;20673;-69
2022/06/20 10:51:52;;;;;;;9.27;6.20;;;28.50;99.00;;;;;;5023483;28;20405;-69
2022/06/20 10:54:37;;;;;;;6.90;5.53;;;28.60;98.80;;;;;;5022872;28;20969;-70
2022/06/20 10:57:38;;;;;;;6.03;4.33;;;29.00;98.10;;;;;;5011563;28;20547;-70
2022/06/20 11:00:18;;;;;;;7.90;5.40;;;29.10;95.00;;;;;;5023061;28;20409;-70
2022/06/20 11:03:03;;;;;;;8.47;5.10;;;29.00;95.50;;;;;;5023643;28;20929;-70
2022/06/20 11:05:51;;;;;;;6.50;4.90;;;29.00;96.30;;;;;;5023192;28;20436;-69
2022/06/20 11:08:52;;;;;;;6.73;4.97;;;29.00;95.90;;;;;;5023837;28;20416;-70
2022/06/20 11:11:37;;;;;;;6.13;5.50;;;29.20;95.60;;;;;;5023176;28;20429;-69
2022/06/20 11:14:30;;;;;;;7.00;4.80;;;29.40;95.00;;;;;;5023076;28;20992;-69
2022/06/20 11:17:21;;;;;;;7.50;5.23;;;29.30;95.50;;;;;;5023414;28;20876;-69
2022/06/20 11:20:14;;;;;;;10.73;5.27;;;29.20;95.30;;;;;;5022820;28;20819;-70
2022/06/20 11:22:44;;;;;;;7.20;5.33;;;29.00;95.50;;;;;;4995598;28;20421;-70
2022/06/20 11:25:52;;;;;;;8.20;5.57;;;29.00;94.70;;;;;;5029754;28;20441;-70
2022/06/20 11:28:39;;;;;;;8.90;6.40;;;29.00;96.00;;;;;;5015058;28;20433;-69
2022/06/20 11:31:12;;;;;;;8.47;5.90;;;28.90;96.50;;;;;;5026450;28;20441;-69
2022/06/20 11:34:06;;;;;;;9.43;5.77;;;28.70;96.60;;;;;;5025798;28;20452;-68
2022/06/20 11:36:58;;;;;;;9.07;6.30;;;28.30;97.10;;;;;;5028340;28;20446;-69
2022/06/20 11:39:48;;;;;;;10.80;6.60;;;27.70;98.00;;;;;;5027100;28;20413;-70
2022/06/20 11:42:35;;;;;;;10.93;6.97;;;27.70;98.80;;;;;;5026094;28;20410;-69
2022/06/20 11:45:32;;;;;;;8.23;6.50;;;27.50;98.70;;;;;;5026032;28;20588;-68
2022/06/20 11:48:25;;;;;;;12.00;6.73;;;27.40;99.10;;;;;;5026307;28;20399;-70
2022/06/20 11:51:26;;;;;;;9.63;5.70;;;27.80;98.70;;;;;;5025882;28;20776;-70
2022/06/20 11:54:10;;;;;;;10.70;5.73;;;28.10;98.60;;;;;;5024726;28;20544;-70
2022/06/20 11:56:44;;;;;;;11.63;7.10;;;28.00;98.70;;;;;;5026384;28;20531;-70
2022/06/20 11:59:21;;;;;;;10.93;7.97;;;28.00;98.70;;;;;;5025934;28;20405;-70
2022/06/20 12:01:55;;;;;;;8.37;6.43;;;28.00;98.80;;;;;;5031621;28;20461;-69
2022/06/20 12:04:34;;;;;;;9.33;6.27;;;28.10;98.50;;;;;;5037734;28;20425;-69
2022/06/20 12:07:21;;;;;;;11.10;6.07;;;28.20;98.50;;;;;;5035631;28;20440;-68
2022/06/20 12:09:55;;;;;;;6.93;4.77;;;28.70;97.70;;;;;;5039739;28;20410;-69
2022/06/20 12:12:30;;;;;;;7.00;4.93;;;29.40;96.80;;;;;;5040611;28;20422;-69
2022/06/20 12:15:21;;;;;;;8.93;4.83;;;30.20;95.00;;;;;;5038793;28;20469;-70
2022/06/20 12:18:24;;;;;;;6.50;4.70;;;29.70;95.40;;;;;;5009566;28;20495;-69
2022/06/20 12:23:53;;;;;;;8.43;4.57;;;27.90;97.00;;;;;;5025823;28;20480;-69
2022/06/20 12:26:31;;;;;;;6.70;4.37;;;27.60;97.80;;;;;;5025559;28;20432;-68
2022/06/20 12:28:59;;;;;;;7.10;3.77;;;27.60;97.40;;;;;;5012009;28;20566;-69
2022/06/20 12:31:29;;;;;;;3.90;3.20;;;27.70;96.80;;;;;;5025220;28;20422;-69
2022/06/20 12:34:16;;;;;;;4.90;3.50;;;27.70;96.60;;;;;;5024785;28;20527;-68
2022/06/20 12:36:55;;;;;;;7.63;4.17;;;27.90;96.30;;;;;;5025330;28;20444;-68
2022/06/20 12:39:31;;;;;;;8.07;4.50;;;27.90;97.10;;;;;;5024608;28;20429;-69
2022/06/20 12:42:12;;;;;;;9.27;5.40;;;28.30;97.50;;;;;;5024168;28;20489;-69
2022/06/20 12:44:50;;;;;;;11.57;5.80;;;30.00;96.40;;;;;;5024875;28;20449;-68
2022/06/20 12:47:27;;;;;;;6.40;5.03;;;31.30;94.70;;;;;;5025029;28;20417;-68
2022/06/20 12:50:20;;;;;;;7.67;5.30;;;31.00;94.00;;;;;;5024973;28;20495;-69
2022/06/20 12:53:27;;;;;;;7.37;4.60;;;30.90;94.40;;;;;;5024964;28;20410;-67
2022/06/20 12:56:21;;;;;;;13.03;6.37;;;30.10;95.10;;;;;;5011048;28;20457;-69
2022/06/20 12:59:02;;;;;;;8.07;5.43;;;29.00;96.30;;;;;;5024498;28;20418;-68
2022/06/20 13:01:52;;;;;;;10.97;5.63;;;27.50;98.40;;;;;;5025134;28;20445;-68
2022/06/20 13:04:38;;;;;;;10.60;6.80;;;26.80;99.90;;;;;;5024293;28;20444;-69
2022/06/20 13:07:39;;;;;;;7.30;5.93;;;27.00;99.80;;;;;;5025055;28;20552;-68
2022/06/20 13:10:21;;;;;;;12.03;6.23;;;27.10;99.50;;;;;;5024770;28;20820;-69
2022/06/20 13:13:04;;;;;;;13.50;6.63;;;26.90;99.80;;;;;;5024433;28;20410;-67
2022/06/20 13:15:55;;;;;;;7.53;6.30;;;26.80;99.90;;;;;;5024136;28;20879;-69
2022/06/20 13:18:56;;;;;;;9.40;5.40;;;27.20;99.70;;;;;;5024407;28;20439;-70
2022/06/20 13:21:37;;;;;;;10.47;6.37;;;27.20;99.90;;;;;;4969885;28;20524;-69
2022/06/20 13:24:21;;;;;;;9.43;6.80;;;27.30;99.80;;;;;;5024092;28;20448;-69
2022/06/20 13:27:05;;;;;;;8.33;6.60;;;26.60;99.90;;;;;;5024475;28;20406;-70
2022/06/20 13:29:50;;;;;;;11.20;6.47;;;26.90;99.90;;;;;;5023745;28;20414;-69
2022/06/20 13:32:27;;;;;;;11.27;7.27;;;26.80;99.90;;;;;;5023883;28;20429;-70
2022/06/20 13:35:01;;;;;;;9.03;7.03;;;26.10;99.90;;;;;;5023321;28;20561;-70
2022/06/20 13:37:35;;;;;;;11.60;6.83;;;26.30;99.90;;;;;;5023226;28;20414;-68
2022/06/20 13:40:26;;;;;;;7.63;6.30;;;26.20;99.90;;;;;;5023754;28;20456;-69
2022/06/20 13:43:11;;;;;;;8.00;7.23;;;26.10;99.90;;;;;;5023926;28;20402;-69
2022/06/20 13:45:56;;;;;;;6.80;5.80;;;25.90;99.90;;;;;;5023186;28;20844;-68
2022/06/20 13:48:35;;;;;;;9.30;5.50;;;26.10;99.90;;;;;;5023715;28;20884;-70